sensor_id;sensor_type;location;lat;lon;timestamp;temperature;humidity
22629;DHT22;11481;53.694;9.910;2023-05-13T00:00:21;16.50;99.90
22629;DHT22;11481;53.694;9.910;2023-05-13T00:02:48;16.30;99.90
22629;DHT22;11481;53.694;9.910;2023-05-13T00:05:15;16.30;99.90
22629;DHT22;11481;53.694;9.910;2023-05-13T00:07:41;16.30;99.90
22629;DHT22;11481;53.694;9.910;2023-05-13T00:10:08;16.30;99.90
22629;DHT22;11481;53.694;9.910;2023-05-13T00:12:35;16.40;99.90
22629;DHT22;11481;53.694;9.910;2023-05-13T00:15:02;16.40;99.90
22629;DHT22;11481;53.694;9.910;2023-05-13T00:17:29;16.20;99.90
22629;DHT22;11481;53.694;9.910;2023-05-13T00:19:56;16.10;99.90
22629;DHT22;11481;53.694;9.910;2023-05-13T00:22:22;16.10;99.90
22629;DHT22;11481;53.694;9.910;2023-05-13T00:24:49;16.20;99.90
22629;DHT22;11481;53.694;9.910;2023-05-13T00:27:15;16.30;99.90
22629;DHT22;11481;53.694;9.910;2023-05-13T00:29:42;16.30;99.90
22629;DHT22;11481;53.694;9.910;2023-05-13T00:32:09;16.20;99.90
22629;DHT22;11481;53.694;9.910;2023-05-13T00:34:35;16.10;99.90
22629;DHT22;11481;53.694;9.910;2023-05-13T00:37:02;16.10;99.90
22629;DHT22;11481;53.694;9.910;2023-05-13T00:39:29;16.10;99.90
22629;DHT22;11481;53.694;9.910;2023-05-13T00:41:55;16.10;99.90
22629;DHT22;11481;53.694;9.910;2023-05-13T00:44:22;16.10;99.90
22629;DHT22;11481;53.694;9.910;2023-05-13T00:46:49;16.00;99.90
22629;DHT22;11481;53.694;9.910;2023-05-13T00:49:15;15.90;99.90
22629;DHT22;11481;53.694;9.910;2023-05-13T00:51:42;15.80;99.90
22629;DHT22;11481;53.694;9.910;2023-05-13T00:54:09;15.80;99.90
22629;DHT22;11481;53.694;9.910;2023-05-13T00:56:37;15.80;99.90
22629;DHT22;11481;53.694;9.910;2023-05-13T00:59:04;15.80;99.90
22629;DHT22;11481;53.694;9.910;2023-05-13T01:01:47;15.70;99.90
22629;DHT22;11481;53.694;9.910;2023-05-13T01:04:35;15.60;99.90
22629;DHT22;11481;53.694;9.910;2023-05-13T01:07:11;15.50;99.90
22629;DHT22;11481;53.694;9.910;2023-05-13T01:12:42;15.40;99.90
22629;DHT22;11481;53.694;9.910;2023-05-13T01:15:14;15.40;99.90
22629;DHT22;11481;53.694;9.910;2023-05-13T01:17:48;15.50;99.90
22629;DHT22;11481;53.694;9.910;2023-05-13T01:20:20;15.30;99.90
22629;DHT22;11481;53.694;9.910;2023-05-13T01:22:47;15.30;99.90
22629;DHT22;11481;53.694;9.910;2023-05-13T01:25:13;15.20;99.90
22629;DHT22;11481;53.694;9.910;2023-05-13T01:27:40;15.30;99.90
22629;DHT22;11481;53.694;9.910;2023-05-13T01:30:08;15.20;99.90
22629;DHT22;11481;53.694;9.910;2023-05-13T01:32:36;15.10;99.90
22629;DHT22;11481;53.694;9.910;2023-05-13T01:35:04;15.20;99.90
22629;DHT22;11481;53.694;9.910;2023-05-13T01:37:31;15.00;99.90
22629;DHT22;11481;53.694;9.910;2023-05-13T01:39:58;15.00;99.90
22629;DHT22;11481;53.694;9.910;2023-05-13T01:42:27;14.80;99.90
22629;DHT22;11481;53.694;9.910;2023-05-13T01:44:55;14.60;99.90
22629;DHT22;11481;53.694;9.910;2023-05-13T01:47:21;14.60;99.90
22629;DHT22;11481;53.694;9.910;2023-05-13T01:49:48;14.50;99.90
22629;DHT22;11481;53.694;9.910;2023-05-13T01:52:14;14.50;99.90
22629;DHT22;11481;53.694;9.910;2023-05-13T01:54:41;14.50;99.90
22629;DHT22;11481;53.694;9.910;2023-05-13T01:57:08;14.40;99.90
22629;DHT22;11481;53.694;9.910;2023-05-13T01:59:34;14.40;99.90
22629;DHT22;11481;53.694;9.910;2023-05-13T02:02:01;14.30;99.90
22629;DHT22;11481;53.694;9.910;2023-05-13T02:04:28;14.40;99.90
22629;DHT22;11481;53.694;9.910;2023-05-13T02:06:55;14.30;99.90
22629;DHT22;11481;53.694;9.910;2023-05-13T02:09:21;14.30;99.90
22629;DHT22;11481;53.694;9.910;2023-05-13T02:11:48;14.30;99.90
22629;DHT22;11481;53.694;9.910;2023-05-13T02:14:14;14.60;99.90
22629;DHT22;11481;53.694;9.910;2023-05-13T02:16:41;14.20;99.90
22629;DHT22;11481;53.694;9.910;2023-05-13T02:19:08;14.20;99.90
22629;DHT22;11481;53.694;9.910;2023-05-13T02:21:34;14.10;99.90
22629;DHT22;11481;53.694;9.910;2023-05-13T02:24:01;13.90;99.90
22629;DHT22;11481;53.694;9.910;2023-05-13T02:26:28;13.90;99.90
22629;DHT22;11481;53.694;9.910;2023-05-13T02:28:54;13.80;99.90
22629;DHT22;11481;53.694;9.910;2023-05-13T02:31:21;13.80;99.90
22629;DHT22;11481;53.694;9.910;2023-05-13T02:33:48;13.80;99.90
22629;DHT22;11481;53.694;9.910;2023-05-13T02:36:14;13.70;99.90
22629;DHT22;11481;53.694;9.910;2023-05-13T02:38:41;13.70;99.90
22629;DHT22;11481;53.694;9.910;2023-05-13T02:41:07;13.80;99.90
22629;DHT22;11481;53.694;9.910;2023-05-13T02:43:34;13.70;99.90
22629;DHT22;11481;53.694;9.910;2023-05-13T02:46:01;13.70;99.90
22629;DHT22;11481;53.694;9.910;2023-05-13T02:48:29;13.60;99.90
22629;DHT22;11481;53.694;9.910;2023-05-13T02:50:55;13.60;99.90
22629;DHT22;11481;53.694;9.910;2023-05-13T02:53:22;13.50;99.90
22629;DHT22;11481;53.694;9.910;2023-05-13T02:55:49;13.50;99.90
22629;DHT22;11481;53.694;9.910;2023-05-13T02:58:16;13.50;99.90
22629;DHT22;11481;53.694;9.910;2023-05-13T03:00:45;13.40;99.90
22629;DHT22;11481;53.694;9.910;2023-05-13T03:03:11;13.40;99.90
22629;DHT22;11481;53.694;9.910;2023-05-13T03:05:38;13.30;99.90
22629;DHT22;11481;53.694;9.910;2023-05-13T03:08:05;13.40;99.90
22629;DHT22;11481;53.694;9.910;2023-05-13T03:10:33;13.30;99.90
22629;DHT22;11481;53.694;9.910;2023-05-13T03:13:00;13.20;99.90
22629;DHT22;11481;53.694;9.910;2023-05-13T03:15:26;13.20;99.90
22629;DHT22;11481;53.694;9.910;2023-05-13T03:17:53;13.20;99.90
22629;DHT22;11481;53.694;9.910;2023-05-13T03:20:20;13.10;99.90
22629;DHT22;11481;53.694;9.910;2023-05-13T03:22:47;13.00;99.90
22629;DHT22;11481;53.694;9.910;2023-05-13T03:25:13;13.00;99.90
22629;DHT22;11481;53.694;9.910;2023-05-13T03:27:40;13.00;99.90
22629;DHT22;11481;53.694;9.910;2023-05-13T03:30:07;13.00;99.90
22629;DHT22;11481;53.694;9.910;2023-05-13T03:32:34;13.00;99.90
22629;DHT22;11481;53.694;9.910;2023-05-13T03:35:00;13.00;99.90
22629;DHT22;11481;53.694;9.910;2023-05-13T03:37:27;13.00;99.90
22629;DHT22;11481;53.694;9.910;2023-05-13T03:39:54;13.00;99.90
22629;DHT22;11481;53.694;9.910;2023-05-13T03:42:21;12.90;99.90
22629;DHT22;11481;53.694;9.910;2023-05-13T03:44:49;12.90;99.90
22629;DHT22;11481;53.694;9.910;2023-05-13T03:47:16;12.90;99.90
22629;DHT22;11481;53.694;9.910;2023-05-13T03:49:43;12.90;99.90
22629;DHT22;11481;53.694;9.910;2023-05-13T03:52:10;12.90;99.90
22629;DHT22;11481;53.694;9.910;2023-05-13T03:54:36;13.00;99.90
22629;DHT22;11481;53.694;9.910;2023-05-13T03:57:03;13.00;99.90
22629;DHT22;11481;53.694;9.910;2023-05-13T03:59:30;12.90;99.90
22629;DHT22;11481;53.694;9.910;2023-05-13T04:01:56;12.80;99.90
22629;DHT22;11481;53.694;9.910;2023-05-13T04:04:23;12.90;99.90
22629;DHT22;11481;53.694;9.910;2023-05-13T04:06:49;12.80;99.90
22629;DHT22;11481;53.694;9.910;2023-05-13T04:09:16;12.80;99.90
22629;DHT22;11481;53.694;9.910;2023-05-13T04:11:43;12.80;99.90
22629;DHT22;11481;53.694;9.910;2023-05-13T04:14:09;12.80;99.90
22629;DHT22;11481;53.694;9.910;2023-05-13T04:16:36;12.80;99.90
22629;DHT22;11481;53.694;9.910;2023-05-13T04:19:03;12.80;99.90
22629;DHT22;11481;53.694;9.910;2023-05-13T04:21:29;12.70;99.90
22629;DHT22;11481;53.694;9.910;2023-05-13T04:23:56;12.60;99.90
22629;DHT22;11481;53.694;9.910;2023-05-13T04:26:24;12.50;99.90
22629;DHT22;11481;53.694;9.910;2023-05-13T04:28:50;12.50;99.90
22629;DHT22;11481;53.694;9.910;2023-05-13T04:31:17;12.50;99.90
22629;DHT22;11481;53.694;9.910;2023-05-13T04:33:44;12.40;99.90
22629;DHT22;11481;53.694;9.910;2023-05-13T04:36:11;12.50;99.90
22629;DHT22;11481;53.694;9.910;2023-05-13T04:38:40;12.50;99.90
22629;DHT22;11481;53.694;9.910;2023-05-13T04:41:07;12.50;99.90
22629;DHT22;11481;53.694;9.910;2023-05-13T04:43:33;12.60;99.90
22629;DHT22;11481;53.694;9.910;2023-05-13T04:46:00;12.70;99.90
22629;DHT22;11481;53.694;9.910;2023-05-13T04:48:27;12.70;99.90
22629;DHT22;11481;53.694;9.910;2023-05-13T04:50:54;12.80;99.90
22629;DHT22;11481;53.694;9.910;2023-05-13T04:53:22;12.90;99.90
22629;DHT22;11481;53.694;9.910;2023-05-13T04:55:48;13.00;99.90
22629;DHT22;11481;53.694;9.910;2023-05-13T04:58:15;13.00;99.90
22629;DHT22;11481;53.694;9.910;2023-05-13T05:00:42;13.10;99.90
22629;DHT22;11481;53.694;9.910;2023-05-13T05:03:09;13.10;99.90
22629;DHT22;11481;53.694;9.910;2023-05-13T05:05:35;13.20;99.90
22629;DHT22;11481;53.694;9.910;2023-05-13T05:08:02;13.20;99.90
22629;DHT22;11481;53.694;9.910;2023-05-13T05:10:29;13.20;99.90
22629;DHT22;11481;53.694;9.910;2023-05-13T05:12:55;13.20;99.90
22629;DHT22;11481;53.694;9.910;2023-05-13T05:15:22;13.30;99.90
22629;DHT22;11481;53.694;9.910;2023-05-13T05:17:49;13.30;99.90
22629;DHT22;11481;53.694;9.910;2023-05-13T05:20:15;13.40;99.90
22629;DHT22;11481;53.694;9.910;2023-05-13T05:22:42;13.40;99.90
22629;DHT22;11481;53.694;9.910;2023-05-13T05:25:09;13.50;99.90
22629;DHT22;11481;53.694;9.910;2023-05-13T05:27:37;13.50;99.90
22629;DHT22;11481;53.694;9.910;2023-05-13T05:30:04;13.50;99.90
22629;DHT22;11481;53.694;9.910;2023-05-13T05:32:30;13.60;99.90
22629;DHT22;11481;53.694;9.910;2023-05-13T05:34:58;13.60;99.90
22629;DHT22;11481;53.694;9.910;2023-05-13T05:37:28;13.70;99.90
22629;DHT22;11481;53.694;9.910;2023-05-13T05:39:55;13.70;99.90
22629;DHT22;11481;53.694;9.910;2023-05-13T05:42:21;13.80;99.90
22629;DHT22;11481;53.694;9.910;2023-05-13T05:44:50;13.80;99.90
22629;DHT22;11481;53.694;9.910;2023-05-13T05:47:17;13.90;99.90
22629;DHT22;11481;53.694;9.910;2023-05-13T05:49:43;14.00;99.90
22629;DHT22;11481;53.694;9.910;2023-05-13T05:52:10;14.10;99.90
22629;DHT22;11481;53.694;9.910;2023-05-13T05:54:38;14.20;99.90
22629;DHT22;11481;53.694;9.910;2023-05-13T05:57:05;14.30;99.90
22629;DHT22;11481;53.694;9.910;2023-05-13T05:59:31;14.40;99.90
22629;DHT22;11481;53.694;9.910;2023-05-13T06:01:58;14.40;99.90
22629;DHT22;11481;53.694;9.910;2023-05-13T06:04:24;14.40;99.90
22629;DHT22;11481;53.694;9.910;2023-05-13T06:06:51;14.40;99.90
22629;DHT22;11481;53.694;9.910;2023-05-13T06:09:18;14.50;99.90
22629;DHT22;11481;53.694;9.910;2023-05-13T06:11:46;14.60;99.90
22629;DHT22;11481;53.694;9.910;2023-05-13T06:14:13;14.60;99.90
22629;DHT22;11481;53.694;9.910;2023-05-13T06:16:40;14.80;99.90
22629;DHT22;11481;53.694;9.910;2023-05-13T06:19:06;14.90;99.90
22629;DHT22;11481;53.694;9.910;2023-05-13T06:21:33;14.90;99.90
22629;DHT22;11481;53.694;9.910;2023-05-13T06:24:00;15.00;99.90
22629;DHT22;11481;53.694;9.910;2023-05-13T06:26:28;15.00;99.90
22629;DHT22;11481;53.694;9.910;2023-05-13T06:28:55;15.10;99.90
22629;DHT22;11481;53.694;9.910;2023-05-13T06:31:21;15.20;99.90
22629;DHT22;11481;53.694;9.910;2023-05-13T06:33:48;15.30;99.90
22629;DHT22;11481;53.694;9.910;2023-05-13T06:36:15;15.40;99.90
22629;DHT22;11481;53.694;9.910;2023-05-13T06:38:42;15.50;99.90
22629;DHT22;11481;53.694;9.910;2023-05-13T06:41:08;15.50;99.90
22629;DHT22;11481;53.694;9.910;2023-05-13T06:43:35;15.60;99.90
22629;DHT22;11481;53.694;9.910;2023-05-13T06:46:02;15.70;99.90
22629;DHT22;11481;53.694;9.910;2023-05-13T06:48:29;15.70;99.90
22629;DHT22;11481;53.694;9.910;2023-05-13T06:50:57;15.70;99.90
22629;DHT22;11481;53.694;9.910;2023-05-13T06:53:24;15.60;99.90
22629;DHT22;11481;53.694;9.910;2023-05-13T06:55:51;15.70;99.90
22629;DHT22;11481;53.694;9.910;2023-05-13T06:58:19;15.80;99.90
22629;DHT22;11481;53.694;9.910;2023-05-13T07:00:45;15.90;99.90
22629;DHT22;11481;53.694;9.910;2023-05-13T07:03:14;16.00;99.90
22629;DHT22;11481;53.694;9.910;2023-05-13T07:05:40;16.00;99.90
22629;DHT22;11481;53.694;9.910;2023-05-13T07:08:07;16.10;99.90
22629;DHT22;11481;53.694;9.910;2023-05-13T07:10:34;16.20;99.90
22629;DHT22;11481;53.694;9.910;2023-05-13T07:13:03;16.30;99.90
22629;DHT22;11481;53.694;9.910;2023-05-13T07:15:30;16.30;99.90
22629;DHT22;11481;53.694;9.910;2023-05-13T07:17:56;16.40;99.90
22629;DHT22;11481;53.694;9.910;2023-05-13T07:20:25;16.40;99.90
22629;DHT22;11481;53.694;9.910;2023-05-13T07:22:52;16.50;99.90
22629;DHT22;11481;53.694;9.910;2023-05-13T07:25:19;16.50;99.90
22629;DHT22;11481;53.694;9.910;2023-05-13T07:27:46;16.60;99.90
22629;DHT22;11481;53.694;9.910;2023-05-13T07:30:13;16.70;99.90
22629;DHT22;11481;53.694;9.910;2023-05-13T07:32:40;16.90;99.90
22629;DHT22;11481;53.694;9.910;2023-05-13T07:35:07;17.10;99.90
22629;DHT22;11481;53.694;9.910;2023-05-13T07:37:34;17.10;99.90
22629;DHT22;11481;53.694;9.910;2023-05-13T07:40:06;17.20;99.90
22629;DHT22;11481;53.694;9.910;2023-05-13T07:42:33;17.30;99.90
22629;DHT22;11481;53.694;9.910;2023-05-13T07:45:02;17.30;99.90
22629;DHT22;11481;53.694;9.910;2023-05-13T07:47:29;17.40;99.90
22629;DHT22;11481;53.694;9.910;2023-05-13T07:49:57;17.50;99.90
22629;DHT22;11481;53.694;9.910;2023-05-13T07:52:24;17.60;99.90
22629;DHT22;11481;53.694;9.910;2023-05-13T07:54:53;17.70;99.90
22629;DHT22;11481;53.694;9.910;2023-05-13T07:57:20;17.80;99.90
22629;DHT22;11481;53.694;9.910;2023-05-13T07:59:46;17.90;99.90
22629;DHT22;11481;53.694;9.910;2023-05-13T08:02:13;18.00;99.90
22629;DHT22;11481;53.694;9.910;2023-05-13T08:04:39;18.00;99.90
22629;DHT22;11481;53.694;9.910;2023-05-13T08:07:08;18.10;99.90
22629;DHT22;11481;53.694;9.910;2023-05-13T08:09:37;18.30;99.90
22629;DHT22;11481;53.694;9.910;2023-05-13T08:12:04;18.40;99.90
22629;DHT22;11481;53.694;9.910;2023-05-13T08:14:31;18.40;99.90
22629;DHT22;11481;53.694;9.910;2023-05-13T08:16:58;18.50;99.90
22629;DHT22;11481;53.694;9.910;2023-05-13T08:19:24;18.40;99.90
22629;DHT22;11481;53.694;9.910;2023-05-13T08:21:51;18.50;99.90
22629;DHT22;11481;53.694;9.910;2023-05-13T08:24:18;18.60;99.90
22629;DHT22;11481;53.694;9.910;2023-05-13T08:26:44;18.80;99.90
22629;DHT22;11481;53.694;9.910;2023-05-13T08:29:11;18.80;99.90
22629;DHT22;11481;53.694;9.910;2023-05-13T08:31:41;19.00;99.90
22629;DHT22;11481;53.694;9.910;2023-05-13T08:34:07;19.10;99.90
22629;DHT22;11481;53.694;9.910;2023-05-13T08:36:36;19.20;99.90
22629;DHT22;11481;53.694;9.910;2023-05-13T08:39:03;19.50;99.90
22629;DHT22;11481;53.694;9.910;2023-05-13T08:41:30;19.50;99.90
22629;DHT22;11481;53.694;9.910;2023-05-13T08:44:02;19.50;99.90
22629;DHT22;11481;53.694;9.910;2023-05-13T08:46:31;19.60;99.90
22629;DHT22;11481;53.694;9.910;2023-05-13T08:49:00;19.70;99.90
22629;DHT22;11481;53.694;9.910;2023-05-13T08:51:27;19.80;99.90
22629;DHT22;11481;53.694;9.910;2023-05-13T08:53:54;19.90;99.90
22629;DHT22;11481;53.694;9.910;2023-05-13T08:56:21;20.00;99.90
22629;DHT22;11481;53.694;9.910;2023-05-13T08:58:50;20.20;99.90
22629;DHT22;11481;53.694;9.910;2023-05-13T09:01:17;20.10;99.90
22629;DHT22;11481;53.694;9.910;2023-05-13T09:03:53;20.00;99.90
22629;DHT22;11481;53.694;9.910;2023-05-13T09:06:22;20.20;99.90
22629;DHT22;11481;53.694;9.910;2023-05-13T09:08:48;20.30;99.90
22629;DHT22;11481;53.694;9.910;2023-05-13T09:11:15;20.60;99.90
22629;DHT22;11481;53.694;9.910;2023-05-13T09:13:42;20.70;99.90
22629;DHT22;11481;53.694;9.910;2023-05-13T09:16:10;20.70;99.90
22629;DHT22;11481;53.694;9.910;2023-05-13T09:18:39;20.70;99.90
22629;DHT22;11481;53.694;9.910;2023-05-13T09:21:24;20.80;99.90
22629;DHT22;11481;53.694;9.910;2023-05-13T09:24:12;20.80;99.90
22629;DHT22;11481;53.694;9.910;2023-05-13T09:26:44;21.10;99.90
22629;DHT22;11481;53.694;9.910;2023-05-13T09:29:25;21.30;99.90
22629;DHT22;11481;53.694;9.910;2023-05-13T09:31:59;21.50;99.90
22629;DHT22;11481;53.694;9.910;2023-05-13T09:34:31;21.60;99.90
22629;DHT22;11481;53.694;9.910;2023-05-13T09:37:05;21.70;99.90
22629;DHT22;11481;53.694;9.910;2023-05-13T09:39:39;21.80;99.90
22629;DHT22;11481;53.694;9.910;2023-05-13T09:42:16;21.80;99.90
22629;DHT22;11481;53.694;9.910;2023-05-13T09:44:45;21.90;99.90
22629;DHT22;11481;53.694;9.910;2023-05-13T09:47:15;22.00;99.90
22629;DHT22;11481;53.694;9.910;2023-05-13T09:49:44;22.00;99.90
22629;DHT22;11481;53.694;9.910;2023-05-13T09:52:11;22.10;99.90
22629;DHT22;11481;53.694;9.910;2023-05-13T09:54:43;22.20;99.90
22629;DHT22;11481;53.694;9.910;2023-05-13T09:57:12;22.20;99.90
22629;DHT22;11481;53.694;9.910;2023-05-13T09:59:38;22.30;99.90
22629;DHT22;11481;53.694;9.910;2023-05-13T10:02:06;22.30;99.90
22629;DHT22;11481;53.694;9.910;2023-05-13T10:04:33;22.40;99.90
22629;DHT22;11481;53.694;9.910;2023-05-13T10:07:02;22.50;99.90
22629;DHT22;11481;53.694;9.910;2023-05-13T10:09:34;22.50;99.90
22629;DHT22;11481;53.694;9.910;2023-05-13T10:12:02;22.70;99.90
22629;DHT22;11481;53.694;9.910;2023-05-13T10:14:32;22.80;99.90
22629;DHT22;11481;53.694;9.910;2023-05-13T10:16:59;22.90;99.90
22629;DHT22;11481;53.694;9.910;2023-05-13T10:19:27;23.00;99.90
22629;DHT22;11481;53.694;9.910;2023-05-13T10:21:54;23.00;99.90
22629;DHT22;11481;53.694;9.910;2023-05-13T10:24:23;23.00;99.90
22629;DHT22;11481;53.694;9.910;2023-05-13T10:26:52;23.20;99.90
22629;DHT22;11481;53.694;9.910;2023-05-13T10:29:21;23.30;99.90
22629;DHT22;11481;53.694;9.910;2023-05-13T10:31:48;23.20;99.90
22629;DHT22;11481;53.694;9.910;2023-05-13T10:34:16;23.30;99.90
22629;DHT22;11481;53.694;9.910;2023-05-13T10:37:03;23.40;99.90
22629;DHT22;11481;53.694;9.910;2023-05-13T10:42:39;23.50;99.90
22629;DHT22;11481;53.694;9.910;2023-05-13T10:45:09;23.50;99.90
22629;DHT22;11481;53.694;9.910;2023-05-13T10:47:36;23.60;99.90
22629;DHT22;11481;53.694;9.910;2023-05-13T10:50:05;23.50;99.90
22629;DHT22;11481;53.694;9.910;2023-05-13T10:53:01;23.60;99.90
22629;DHT22;11481;53.694;9.910;2023-05-13T10:55:39;23.60;99.90
22629;DHT22;11481;53.694;9.910;2023-05-13T10:58:11;23.70;99.90
22629;DHT22;11481;53.694;9.910;2023-05-13T11:00:40;23.80;99.90
22629;DHT22;11481;53.694;9.910;2023-05-13T11:05:47;24.00;99.90
22629;DHT22;11481;53.694;9.910;2023-05-13T11:08:42;24.00;99.90
22629;DHT22;11481;53.694;9.910;2023-05-13T11:13:43;24.20;99.90
22629;DHT22;11481;53.694;9.910;2023-05-13T11:16:12;24.40;99.90
22629;DHT22;11481;53.694;9.910;2023-05-13T11:18:39;24.50;99.90
22629;DHT22;11481;53.694;9.910;2023-05-13T11:21:07;24.50;99.90
22629;DHT22;11481;53.694;9.910;2023-05-13T11:23:54;24.50;99.90
22629;DHT22;11481;53.694;9.910;2023-05-13T11:26:21;24.60;99.90
22629;DHT22;11481;53.694;9.910;2023-05-13T11:28:55;24.80;99.90
22629;DHT22;11481;53.694;9.910;2023-05-13T11:31:24;24.80;99.90
22629;DHT22;11481;53.694;9.910;2023-05-13T11:34:08;24.60;99.90
22629;DHT22;11481;53.694;9.910;2023-05-13T11:36:44;24.70;99.90
22629;DHT22;11481;53.694;9.910;2023-05-13T11:39:16;24.70;99.90
22629;DHT22;11481;53.694;9.910;2023-05-13T11:41:48;24.80;99.90
22629;DHT22;11481;53.694;9.910;2023-05-13T11:44:19;24.80;99.90
22629;DHT22;11481;53.694;9.910;2023-05-13T11:47:00;24.90;99.90
22629;DHT22;11481;53.694;9.910;2023-05-13T11:52:02;24.60;99.90
22629;DHT22;11481;53.694;9.910;2023-05-13T11:54:32;24.80;99.90
22629;DHT22;11481;53.694;9.910;2023-05-13T11:57:23;24.80;99.90
22629;DHT22;11481;53.694;9.910;2023-05-13T12:00:01;24.70;99.90
22629;DHT22;11481;53.694;9.910;2023-05-13T12:02:32;24.80;99.90
22629;DHT22;11481;53.694;9.910;2023-05-13T12:05:05;25.10;99.90
22629;DHT22;11481;53.694;9.910;2023-05-13T12:07:33;25.20;99.90
22629;DHT22;11481;53.694;9.910;2023-05-13T12:10:01;25.40;99.90
22629;DHT22;11481;53.694;9.910;2023-05-13T12:12:29;25.40;99.90
22629;DHT22;11481;53.694;9.910;2023-05-13T12:15:01;25.20;99.90
22629;DHT22;11481;53.694;9.910;2023-05-13T12:17:30;25.20;99.90
22629;DHT22;11481;53.694;9.910;2023-05-13T12:20:13;25.20;99.90
22629;DHT22;11481;53.694;9.910;2023-05-13T12:25:35;25.10;99.90
22629;DHT22;11481;53.694;9.910;2023-05-13T12:28:10;25.10;99.90
22629;DHT22;11481;53.694;9.910;2023-05-13T12:30:39;25.30;99.90
22629;DHT22;11481;53.694;9.910;2023-05-13T12:33:16;25.00;99.90
22629;DHT22;11481;53.694;9.910;2023-05-13T12:35:47;24.80;99.90
22629;DHT22;11481;53.694;9.910;2023-05-13T12:38:19;24.70;99.90
22629;DHT22;11481;53.694;9.910;2023-05-13T12:40:47;24.70;99.90
22629;DHT22;11481;53.694;9.910;2023-05-13T12:43:16;24.70;99.90
22629;DHT22;11481;53.694;9.910;2023-05-13T12:45:44;24.90;99.90
22629;DHT22;11481;53.694;9.910;2023-05-13T12:48:12;25.20;99.90
22629;DHT22;11481;53.694;9.910;2023-05-13T12:50:40;25.50;99.90
22629;DHT22;11481;53.694;9.910;2023-05-13T12:53:06;25.50;99.90
22629;DHT22;11481;53.694;9.910;2023-05-13T12:55:33;25.50;99.90
22629;DHT22;11481;53.694;9.910;2023-05-13T12:58:06;25.70;99.90
22629;DHT22;11481;53.694;9.910;2023-05-13T13:00:36;25.80;99.90
22629;DHT22;11481;53.694;9.910;2023-05-13T13:03:02;26.00;99.90
22629;DHT22;11481;53.694;9.910;2023-05-13T13:05:30;26.20;99.90
22629;DHT22;11481;53.694;9.910;2023-05-13T13:07:57;26.30;99.90
22629;DHT22;11481;53.694;9.910;2023-05-13T13:10:23;26.40;99.90
22629;DHT22;11481;53.694;9.910;2023-05-13T13:12:50;26.60;99.90
22629;DHT22;11481;53.694;9.910;2023-05-13T13:15:17;26.60;99.90
22629;DHT22;11481;53.694;9.910;2023-05-13T13:17:44;26.60;99.90
22629;DHT22;11481;53.694;9.910;2023-05-13T13:20:11;26.70;99.90
22629;DHT22;11481;53.694;9.910;2023-05-13T13:22:38;26.80;99.90
22629;DHT22;11481;53.694;9.910;2023-05-13T13:25:06;26.80;99.90
22629;DHT22;11481;53.694;9.910;2023-05-13T13:27:33;26.90;99.90
22629;DHT22;11481;53.694;9.910;2023-05-13T13:30:03;26.80;99.90
22629;DHT22;11481;53.694;9.910;2023-05-13T13:32:32;26.80;99.90
22629;DHT22;11481;53.694;9.910;2023-05-13T13:35:00;26.70;99.90
22629;DHT22;11481;53.694;9.910;2023-05-13T13:37:29;26.80;99.90
22629;DHT22;11481;53.694;9.910;2023-05-13T13:39:56;26.80;99.90
22629;DHT22;11481;53.694;9.910;2023-05-13T13:42:22;26.80;99.90
22629;DHT22;11481;53.694;9.910;2023-05-13T13:44:56;26.80;99.90
22629;DHT22;11481;53.694;9.910;2023-05-13T13:47:23;26.90;99.90
22629;DHT22;11481;53.694;9.910;2023-05-13T13:49:49;26.90;99.40
22629;DHT22;11481;53.694;9.910;2023-05-13T13:52:17;26.90;99.10
22629;DHT22;11481;53.694;9.910;2023-05-13T13:54:43;27.00;98.90
22629;DHT22;11481;53.694;9.910;2023-05-13T13:57:10;27.10;99.60
22629;DHT22;11481;53.694;9.910;2023-05-13T13:59:37;27.10;99.00
22629;DHT22;11481;53.694;9.910;2023-05-13T14:02:03;27.20;99.50
22629;DHT22;11481;53.694;9.910;2023-05-13T14:04:30;27.30;97.90
22629;DHT22;11481;53.694;9.910;2023-05-13T14:07:00;27.40;97.70
22629;DHT22;11481;53.694;9.910;2023-05-13T14:09:29;27.40;97.50
22629;DHT22;11481;53.694;9.910;2023-05-13T14:11:58;27.60;98.70
22629;DHT22;11481;53.694;9.910;2023-05-13T14:14:25;27.90;97.30
22629;DHT22;11481;53.694;9.910;2023-05-13T14:16:51;27.90;96.60
22629;DHT22;11481;53.694;9.910;2023-05-13T14:19:18;28.00;97.50
22629;DHT22;11481;53.694;9.910;2023-05-13T14:21:45;28.10;96.60
22629;DHT22;11481;53.694;9.910;2023-05-13T14:24:12;28.20;94.10
22629;DHT22;11481;53.694;9.910;2023-05-13T14:26:39;28.30;94.70
22629;DHT22;11481;53.694;9.910;2023-05-13T14:29:05;28.30;95.50
22629;DHT22;11481;53.694;9.910;2023-05-13T14:31:34;28.30;93.90
22629;DHT22;11481;53.694;9.910;2023-05-13T14:34:01;28.30;92.90
22629;DHT22;11481;53.694;9.910;2023-05-13T14:36:28;28.30;93.50
22629;DHT22;11481;53.694;9.910;2023-05-13T14:38:56;28.40;92.50
22629;DHT22;11481;53.694;9.910;2023-05-13T14:41:23;28.40;92.70
22629;DHT22;11481;53.694;9.910;2023-05-13T14:43:50;28.50;92.10
22629;DHT22;11481;53.694;9.910;2023-05-13T14:46:17;28.40;91.50
22629;DHT22;11481;53.694;9.910;2023-05-13T14:48:44;28.40;92.90
22629;DHT22;11481;53.694;9.910;2023-05-13T14:51:10;28.50;92.00
22629;DHT22;11481;53.694;9.910;2023-05-13T14:53:38;28.50;92.10
22629;DHT22;11481;53.694;9.910;2023-05-13T14:56:06;28.60;91.90
22629;DHT22;11481;53.694;9.910;2023-05-13T14:58:33;28.50;91.60
22629;DHT22;11481;53.694;9.910;2023-05-13T15:01:00;28.50;91.00
22629;DHT22;11481;53.694;9.910;2023-05-13T15:03:28;28.60;91.10
22629;DHT22;11481;53.694;9.910;2023-05-13T15:05:56;28.60;90.50
22629;DHT22;11481;53.694;9.910;2023-05-13T15:08:22;28.70;91.10
22629;DHT22;11481;53.694;9.910;2023-05-13T15:10:49;28.90;90.00
22629;DHT22;11481;53.694;9.910;2023-05-13T15:13:17;29.00;88.40
22629;DHT22;11481;53.694;9.910;2023-05-13T15:15:44;28.80;89.80
22629;DHT22;11481;53.694;9.910;2023-05-13T15:18:12;28.60;90.00
22629;DHT22;11481;53.694;9.910;2023-05-13T15:20:38;28.70;88.70
22629;DHT22;11481;53.694;9.910;2023-05-13T15:23:07;28.70;88.30
22629;DHT22;11481;53.694;9.910;2023-05-13T15:25:36;28.60;88.30
22629;DHT22;11481;53.694;9.910;2023-05-13T15:28:03;28.80;88.80
22629;DHT22;11481;53.694;9.910;2023-05-13T15:30:31;28.80;86.90
22629;DHT22;11481;53.694;9.910;2023-05-13T15:33:02;28.70;87.00
22629;DHT22;11481;53.694;9.910;2023-05-13T15:35:29;28.60;85.20
22629;DHT22;11481;53.694;9.910;2023-05-13T15:37:56;28.40;86.20
22629;DHT22;11481;53.694;9.910;2023-05-13T15:40:23;28.50;86.90
22629;DHT22;11481;53.694;9.910;2023-05-13T15:42:50;28.70;85.50
22629;DHT22;11481;53.694;9.910;2023-05-13T15:45:16;28.90;86.40
22629;DHT22;11481;53.694;9.910;2023-05-13T15:47:43;29.00;84.10
22629;DHT22;11481;53.694;9.910;2023-05-13T15:50:10;29.20;84.60
22629;DHT22;11481;53.694;9.910;2023-05-13T15:52:37;29.50;83.80